sensor_id;sensor_type;location;lat;lon;timestamp;temperature;humidity
36552;DHT22;22559;54.176;12.102;2023-06-24T00:02:12;18.70;99.90
36552;DHT22;22559;54.176;12.102;2023-06-24T00:04:38;18.60;99.90
36552;DHT22;22559;54.176;12.102;2023-06-24T00:07:04;18.60;99.90
36552;DHT22;22559;54.176;12.102;2023-06-24T00:09:30;18.50;99.90
36552;DHT22;22559;54.176;12.102;2023-06-24T00:11:56;18.50;99.90
36552;DHT22;22559;54.176;12.102;2023-06-24T00:14:22;18.50;99.90
36552;DHT22;22559;54.176;12.102;2023-06-24T00:16:53;18.50;99.90
36552;DHT22;22559;54.176;12.102;2023-06-24T00:19:20;18.40;99.90
36552;DHT22;22559;54.176;12.102;2023-06-24T00:21:49;18.40;99.90
36552;DHT22;22559;54.176;12.102;2023-06-24T00:24:21;18.40;99.90
36552;DHT22;22559;54.176;12.102;2023-06-24T00:26:54;18.50;99.90
36552;DHT22;22559;54.176;12.102;2023-06-24T00:29:20;18.50;99.90
36552;DHT22;22559;54.176;12.102;2023-06-24T00:31:46;18.50;99.90
36552;DHT22;22559;54.176;12.102;2023-06-24T00:34:11;18.50;99.90
36552;DHT22;22559;54.176;12.102;2023-06-24T00:36:37;18.40;99.90
36552;DHT22;22559;54.176;12.102;2023-06-24T00:39:06;18.40;99.90
36552;DHT22;22559;54.176;12.102;2023-06-24T00:41:33;18.40;99.90
36552;DHT22;22559;54.176;12.102;2023-06-24T00:44:00;18.40;99.90
36552;DHT22;22559;54.176;12.102;2023-06-24T00:46:28;18.40;99.90
36552;DHT22;22559;54.176;12.102;2023-06-24T00:48:57;18.30;99.90
36552;DHT22;22559;54.176;12.102;2023-06-24T00:51:23;18.40;99.90
36552;DHT22;22559;54.176;12.102;2023-06-24T00:53:59;18.30;99.90
36552;DHT22;22559;54.176;12.102;2023-06-24T00:56:31;18.30;99.90
36552;DHT22;22559;54.176;12.102;2023-06-24T00:59:02;18.30;99.90
36552;DHT22;22559;54.176;12.102;2023-06-24T01:01:33;18.20;99.90
36552;DHT22;22559;54.176;12.102;2023-06-24T01:04:01;18.20;99.90
36552;DHT22;22559;54.176;12.102;2023-06-24T01:06:28;18.20;99.90
36552;DHT22;22559;54.176;12.102;2023-06-24T01:08:58;18.20;99.90
36552;DHT22;22559;54.176;12.102;2023-06-24T01:11:26;18.20;99.90
36552;DHT22;22559;54.176;12.102;2023-06-24T01:13:52;18.20;99.90
36552;DHT22;22559;54.176;12.102;2023-06-24T01:16:33;18.10;99.90
36552;DHT22;22559;54.176;12.102;2023-06-24T01:33:11;17.80;99.90
36552;DHT22;22559;54.176;12.102;2023-06-24T01:35:40;17.70;99.90
36552;DHT22;22559;54.176;12.102;2023-06-24T01:38:15;17.60;99.90
36552;DHT22;22559;54.176;12.102;2023-06-24T01:40:45;17.60;99.90
36552;DHT22;22559;54.176;12.102;2023-06-24T01:43:12;17.50;99.90
36552;DHT22;22559;54.176;12.102;2023-06-24T01:45:51;17.50;99.90
36552;DHT22;22559;54.176;12.102;2023-06-24T01:48:44;17.50;99.90
36552;DHT22;22559;54.176;12.102;2023-06-24T01:51:12;17.40;99.90
36552;DHT22;22559;54.176;12.102;2023-06-24T01:53:42;17.40;99.90
36552;DHT22;22559;54.176;12.102;2023-06-24T01:56:11;17.50;99.90
36552;DHT22;22559;54.176;12.102;2023-06-24T01:58:39;17.50;99.90
36552;DHT22;22559;54.176;12.102;2023-06-24T02:01:06;17.50;99.90
36552;DHT22;22559;54.176;12.102;2023-06-24T02:03:33;17.60;99.90
36552;DHT22;22559;54.176;12.102;2023-06-24T02:05:59;17.60;99.90
36552;DHT22;22559;54.176;12.102;2023-06-24T02:08:30;17.60;99.90
36552;DHT22;22559;54.176;12.102;2023-06-24T02:10:58;17.60;99.90
36552;DHT22;22559;54.176;12.102;2023-06-24T02:13:25;17.60;99.90
36552;DHT22;22559;54.176;12.102;2023-06-24T02:15:52;17.60;99.90
36552;DHT22;22559;54.176;12.102;2023-06-24T02:18:19;17.60;99.90
36552;DHT22;22559;54.176;12.102;2023-06-24T02:20:48;17.60;99.90
36552;DHT22;22559;54.176;12.102;2023-06-24T02:23:15;17.50;99.90
36552;DHT22;22559;54.176;12.102;2023-06-24T02:25:42;17.50;99.90
36552;DHT22;22559;54.176;12.102;2023-06-24T02:28:08;17.50;99.90
36552;DHT22;22559;54.176;12.102;2023-06-24T02:30:35;17.50;99.90
36552;DHT22;22559;54.176;12.102;2023-06-24T02:33:02;17.50;99.90
36552;DHT22;22559;54.176;12.102;2023-06-24T02:35:27;17.50;99.90
36552;DHT22;22559;54.176;12.102;2023-06-24T02:37:53;17.50;99.90
36552;DHT22;22559;54.176;12.102;2023-06-24T02:40:20;17.50;99.90
36552;DHT22;22559;54.176;12.102;2023-06-24T02:42:45;17.50;99.90
36552;DHT22;22559;54.176;12.102;2023-06-24T02:45:11;17.50;99.90
36552;DHT22;22559;54.176;12.102;2023-06-24T02:47:37;17.40;99.90
36552;DHT22;22559;54.176;12.102;2023-06-24T02:50:06;17.30;99.90
36552;DHT22;22559;54.176;12.102;2023-06-24T02:52:33;17.20;99.90
36552;DHT22;22559;54.176;12.102;2023-06-24T02:55:02;17.20;99.90
36552;DHT22;22559;54.176;12.102;2023-06-24T02:57:28;17.10;99.90
36552;DHT22;22559;54.176;12.102;2023-06-24T02:59:55;17.10;99.90
36552;DHT22;22559;54.176;12.102;2023-06-24T03:02:21;17.00;99.90
36552;DHT22;22559;54.176;12.102;2023-06-24T03:04:48;17.00;99.90
36552;DHT22;22559;54.176;12.102;2023-06-24T03:07:15;17.00;99.90
36552;DHT22;22559;54.176;12.102;2023-06-24T03:09:41;17.00;99.90
36552;DHT22;22559;54.176;12.102;2023-06-24T03:12:07;16.90;99.90
36552;DHT22;22559;54.176;12.102;2023-06-24T03:14:33;16.90;99.90
36552;DHT22;22559;54.176;12.102;2023-06-24T03:16:59;16.90;99.90
36552;DHT22;22559;54.176;12.102;2023-06-24T03:19:24;16.80;99.90
36552;DHT22;22559;54.176;12.102;2023-06-24T03:21:50;16.70;99.90
36552;DHT22;22559;54.176;12.102;2023-06-24T03:24:16;16.60;99.90
36552;DHT22;22559;54.176;12.102;2023-06-24T03:26:42;16.60;99.90
36552;DHT22;22559;54.176;12.102;2023-06-24T03:29:08;16.60;99.90
36552;DHT22;22559;54.176;12.102;2023-06-24T03:31:33;16.60;99.90
36552;DHT22;22559;54.176;12.102;2023-06-24T03:33:59;16.70;99.90
36552;DHT22;22559;54.176;12.102;2023-06-24T03:36:25;16.70;99.90
36552;DHT22;22559;54.176;12.102;2023-06-24T03:38:51;16.70;99.90
36552;DHT22;22559;54.176;12.102;2023-06-24T03:41:17;16.70;99.90
36552;DHT22;22559;54.176;12.102;2023-06-24T03:43:42;16.70;99.90
36552;DHT22;22559;54.176;12.102;2023-06-24T03:46:09;16.60;99.90
36552;DHT22;22559;54.176;12.102;2023-06-24T03:48:35;16.50;99.90
36552;DHT22;22559;54.176;12.102;2023-06-24T03:51:01;16.50;99.90
36552;DHT22;22559;54.176;12.102;2023-06-24T03:53:26;16.50;99.90
36552;DHT22;22559;54.176;12.102;2023-06-24T03:55:52;16.50;99.90
36552;DHT22;22559;54.176;12.102;2023-06-24T03:58:17;16.50;99.90
36552;DHT22;22559;54.176;12.102;2023-06-24T04:00:46;16.50;99.90
36552;DHT22;22559;54.176;12.102;2023-06-24T04:03:14;16.50;99.90
36552;DHT22;22559;54.176;12.102;2023-06-24T04:05:41;16.60;99.90
36552;DHT22;22559;54.176;12.102;2023-06-24T04:08:06;16.60;99.90
36552;DHT22;22559;54.176;12.102;2023-06-24T04:10:33;16.60;99.90
36552;DHT22;22559;54.176;12.102;2023-06-24T04:12:58;16.60;99.90
36552;DHT22;22559;54.176;12.102;2023-06-24T04:15:24;16.60;99.90
36552;DHT22;22559;54.176;12.102;2023-06-24T04:17:50;16.50;99.90
36552;DHT22;22559;54.176;12.102;2023-06-24T04:20:15;16.50;99.90
36552;DHT22;22559;54.176;12.102;2023-06-24T04:22:41;16.50;99.90
36552;DHT22;22559;54.176;12.102;2023-06-24T04:25:08;16.50;99.90
36552;DHT22;22559;54.176;12.102;2023-06-24T04:27:34;16.50;99.90
36552;DHT22;22559;54.176;12.102;2023-06-24T04:30:00;16.60;99.90
36552;DHT22;22559;54.176;12.102;2023-06-24T04:32:26;16.50;99.90
36552;DHT22;22559;54.176;12.102;2023-06-24T04:34:52;16.50;99.90
36552;DHT22;22559;54.176;12.102;2023-06-24T04:37:18;16.50;99.90
36552;DHT22;22559;54.176;12.102;2023-06-24T04:39:44;16.50;99.90
36552;DHT22;22559;54.176;12.102;2023-06-24T04:42:11;16.60;99.90
36552;DHT22;22559;54.176;12.102;2023-06-24T04:44:37;16.60;99.90
36552;DHT22;22559;54.176;12.102;2023-06-24T04:47:02;16.60;99.90
36552;DHT22;22559;54.176;12.102;2023-06-24T04:49:28;16.60;99.90
36552;DHT22;22559;54.176;12.102;2023-06-24T04:51:54;16.60;99.90
36552;DHT22;22559;54.176;12.102;2023-06-24T04:56:48;16.70;99.90
36552;DHT22;22559;54.176;12.102;2023-06-24T04:59:16;16.70;99.90
36552;DHT22;22559;54.176;12.102;2023-06-24T05:01:41;16.70;99.90
36552;DHT22;22559;54.176;12.102;2023-06-24T05:04:07;16.80;99.90
36552;DHT22;22559;54.176;12.102;2023-06-24T05:06:32;16.80;99.90
36552;DHT22;22559;54.176;12.102;2023-06-24T05:08:58;16.80;99.90
36552;DHT22;22559;54.176;12.102;2023-06-24T05:11:24;16.80;99.90
36552;DHT22;22559;54.176;12.102;2023-06-24T05:13:49;16.80;99.90
36552;DHT22;22559;54.176;12.102;2023-06-24T05:16:15;16.90;99.90
36552;DHT22;22559;54.176;12.102;2023-06-24T05:18:43;16.90;99.90
36552;DHT22;22559;54.176;12.102;2023-06-24T05:21:09;16.90;99.90
36552;DHT22;22559;54.176;12.102;2023-06-24T05:23:34;16.90;99.90
36552;DHT22;22559;54.176;12.102;2023-06-24T05:26:00;16.90;99.90
36552;DHT22;22559;54.176;12.102;2023-06-24T05:28:26;16.90;99.90
36552;DHT22;22559;54.176;12.102;2023-06-24T05:30:52;16.90;99.90
36552;DHT22;22559;54.176;12.102;2023-06-24T05:33:17;17.00;99.90
36552;DHT22;22559;54.176;12.102;2023-06-24T05:35:43;17.00;99.90
36552;DHT22;22559;54.176;12.102;2023-06-24T05:38:09;17.00;99.90
36552;DHT22;22559;54.176;12.102;2023-06-24T05:40:35;17.00;99.90
36552;DHT22;22559;54.176;12.102;2023-06-24T05:43:00;17.10;99.90
36552;DHT22;22559;54.176;12.102;2023-06-24T05:45:26;17.20;99.90
36552;DHT22;22559;54.176;12.102;2023-06-24T05:47:52;17.20;99.90
36552;DHT22;22559;54.176;12.102;2023-06-24T05:50:18;17.30;99.90
36552;DHT22;22559;54.176;12.102;2023-06-24T05:52:43;17.40;99.90
36552;DHT22;22559;54.176;12.102;2023-06-24T05:55:09;17.40;99.90
36552;DHT22;22559;54.176;12.102;2023-06-24T05:57:35;17.40;99.90
36552;DHT22;22559;54.176;12.102;2023-06-24T06:00:00;17.40;99.90
36552;DHT22;22559;54.176;12.102;2023-06-24T06:02:26;17.50;99.90
36552;DHT22;22559;54.176;12.102;2023-06-24T06:04:52;17.50;99.90
36552;DHT22;22559;54.176;12.102;2023-06-24T06:07:17;17.60;99.90
36552;DHT22;22559;54.176;12.102;2023-06-24T06:09:43;17.60;99.90
36552;DHT22;22559;54.176;12.102;2023-06-24T06:12:09;17.70;99.90
36552;DHT22;22559;54.176;12.102;2023-06-24T06:14:34;17.80;99.90
36552;DHT22;22559;54.176;12.102;2023-06-24T06:17:00;17.90;99.90
36552;DHT22;22559;54.176;12.102;2023-06-24T06:19:26;18.00;99.90
36552;DHT22;22559;54.176;12.102;2023-06-24T06:21:51;18.00;99.90
36552;DHT22;22559;54.176;12.102;2023-06-24T06:24:17;18.00;99.90
36552;DHT22;22559;54.176;12.102;2023-06-24T06:26:43;18.00;99.90
36552;DHT22;22559;54.176;12.102;2023-06-24T06:29:10;18.10;99.90
36552;DHT22;22559;54.176;12.102;2023-06-24T06:31:36;18.20;99.90
36552;DHT22;22559;54.176;12.102;2023-06-24T06:34:01;18.20;99.90
36552;DHT22;22559;54.176;12.102;2023-06-24T06:36:27;18.30;99.90
36552;DHT22;22559;54.176;12.102;2023-06-24T06:38:53;18.10;99.90
36552;DHT22;22559;54.176;12.102;2023-06-24T06:41:18;18.10;99.90
36552;DHT22;22559;54.176;12.102;2023-06-24T06:43:53;17.90;99.90
36552;DHT22;22559;54.176;12.102;2023-06-24T06:46:19;18.00;99.90
36552;DHT22;22559;54.176;12.102;2023-06-24T06:48:45;18.20;99.90
36552;DHT22;22559;54.176;12.102;2023-06-24T06:51:12;18.80;99.90
36552;DHT22;22559;54.176;12.102;2023-06-24T06:53:38;19.10;99.90
36552;DHT22;22559;54.176;12.102;2023-06-24T06:56:04;19.70;99.90
36552;DHT22;22559;54.176;12.102;2023-06-24T06:58:30;19.60;99.90
36552;DHT22;22559;54.176;12.102;2023-06-24T07:00:55;19.60;99.90
36552;DHT22;22559;54.176;12.102;2023-06-24T07:03:21;19.80;99.90
36552;DHT22;22559;54.176;12.102;2023-06-24T07:05:47;19.50;99.90
36552;DHT22;22559;54.176;12.102;2023-06-24T07:08:12;19.70;99.90
36552;DHT22;22559;54.176;12.102;2023-06-24T07:10:38;19.90;99.90
36552;DHT22;22559;54.176;12.102;2023-06-24T07:13:04;20.30;99.90
36552;DHT22;22559;54.176;12.102;2023-06-24T07:15:29;20.60;99.90
36552;DHT22;22559;54.176;12.102;2023-06-24T07:17:55;20.90;99.90
36552;DHT22;22559;54.176;12.102;2023-06-24T07:20:21;21.30;99.90
36552;DHT22;22559;54.176;12.102;2023-06-24T07:22:47;21.50;99.90
36552;DHT22;22559;54.176;12.102;2023-06-24T07:25:13;21.70;99.90
36552;DHT22;22559;54.176;12.102;2023-06-24T07:27:38;21.90;99.90
36552;DHT22;22559;54.176;12.102;2023-06-24T07:30:05;21.70;99.90
36552;DHT22;22559;54.176;12.102;2023-06-24T07:32:31;21.60;99.90
36552;DHT22;22559;54.176;12.102;2023-06-24T07:34:56;21.70;99.90
36552;DHT22;22559;54.176;12.102;2023-06-24T07:37:22;21.90;99.90
36552;DHT22;22559;54.176;12.102;2023-06-24T07:39:48;22.40;99.90
36552;DHT22;22559;54.176;12.102;2023-06-24T07:42:14;22.70;99.90
36552;DHT22;22559;54.176;12.102;2023-06-24T07:44:45;22.70;99.90
36552;DHT22;22559;54.176;12.102;2023-06-24T07:47:10;22.90;99.90
36552;DHT22;22559;54.176;12.102;2023-06-24T07:49:36;23.10;99.90
36552;DHT22;22559;54.176;12.102;2023-06-24T07:52:02;23.00;99.90
36552;DHT22;22559;54.176;12.102;2023-06-24T07:54:28;22.60;99.90
36552;DHT22;22559;54.176;12.102;2023-06-24T07:56:53;22.60;99.90
36552;DHT22;22559;54.176;12.102;2023-06-24T07:59:19;22.40;99.90
36552;DHT22;22559;54.176;12.102;2023-06-24T08:01:44;22.10;99.90
36552;DHT22;22559;54.176;12.102;2023-06-24T08:04:10;21.70;99.90
36552;DHT22;22559;54.176;12.102;2023-06-24T08:06:36;21.90;99.90
36552;DHT22;22559;54.176;12.102;2023-06-24T08:09:01;22.00;99.90
36552;DHT22;22559;54.176;12.102;2023-06-24T08:11:27;22.60;99.90
36552;DHT22;22559;54.176;12.102;2023-06-24T08:13:52;22.80;99.90
36552;DHT22;22559;54.176;12.102;2023-06-24T08:16:18;22.90;99.90
36552;DHT22;22559;54.176;12.102;2023-06-24T08:18:46;23.00;99.90
36552;DHT22;22559;54.176;12.102;2023-06-24T08:21:12;22.80;99.90
36552;DHT22;22559;54.176;12.102;2023-06-24T08:23:37;22.70;99.90
36552;DHT22;22559;54.176;12.102;2023-06-24T08:26:03;22.60;99.90
36552;DHT22;22559;54.176;12.102;2023-06-24T08:28:28;22.70;99.90
36552;DHT22;22559;54.176;12.102;2023-06-24T08:30:54;23.10;99.90
36552;DHT22;22559;54.176;12.102;2023-06-24T08:33:20;23.30;99.90
36552;DHT22;22559;54.176;12.102;2023-06-24T08:35:45;23.20;99.90
36552;DHT22;22559;54.176;12.102;2023-06-24T08:38:11;23.40;99.90
36552;DHT22;22559;54.176;12.102;2023-06-24T08:40:38;23.80;99.90
36552;DHT22;22559;54.176;12.102;2023-06-24T08:43:06;23.80;99.90
36552;DHT22;22559;54.176;12.102;2023-06-24T08:45:31;23.60;99.90
36552;DHT22;22559;54.176;12.102;2023-06-24T08:47:58;23.50;99.90
36552;DHT22;22559;54.176;12.102;2023-06-24T08:50:31;23.60;99.90
36552;DHT22;22559;54.176;12.102;2023-06-24T08:53:02;23.80;99.90
36552;DHT22;22559;54.176;12.102;2023-06-24T08:55:31;23.70;99.90
36552;DHT22;22559;54.176;12.102;2023-06-24T08:57:58;24.00;99.90
36552;DHT22;22559;54.176;12.102;2023-06-24T09:00:23;23.80;99.90
36552;DHT22;22559;54.176;12.102;2023-06-24T09:02:50;23.90;99.90
36552;DHT22;22559;54.176;12.102;2023-06-24T09:05:15;24.00;99.90
36552;DHT22;22559;54.176;12.102;2023-06-24T09:07:41;24.10;99.90
36552;DHT22;22559;54.176;12.102;2023-06-24T09:10:06;24.20;99.90
36552;DHT22;22559;54.176;12.102;2023-06-24T09:12:33;24.20;99.90
36552;DHT22;22559;54.176;12.102;2023-06-24T09:14:59;24.10;99.90
36552;DHT22;22559;54.176;12.102;2023-06-24T09:17:25;24.30;99.90
36552;DHT22;22559;54.176;12.102;2023-06-24T09:19:51;24.20;99.90
36552;DHT22;22559;54.176;12.102;2023-06-24T09:22:17;24.00;99.90
36552;DHT22;22559;54.176;12.102;2023-06-24T09:24:45;24.10;99.90
36552;DHT22;22559;54.176;12.102;2023-06-24T09:27:15;24.30;99.90
36552;DHT22;22559;54.176;12.102;2023-06-24T09:29:41;24.20;99.90
36552;DHT22;22559;54.176;12.102;2023-06-24T09:32:08;24.00;99.90
36552;DHT22;22559;54.176;12.102;2023-06-24T09:34:34;24.20;99.90
36552;DHT22;22559;54.176;12.102;2023-06-24T09:37:00;24.20;99.90
36552;DHT22;22559;54.176;12.102;2023-06-24T09:39:27;24.20;99.90
36552;DHT22;22559;54.176;12.102;2023-06-24T09:41:57;23.90;99.90
36552;DHT22;22559;54.176;12.102;2023-06-24T09:44:24;23.90;99.90
36552;DHT22;22559;54.176;12.102;2023-06-24T09:46:50;23.50;99.90
36552;DHT22;22559;54.176;12.102;2023-06-24T09:49:16;23.20;99.90
36552;DHT22;22559;54.176;12.102;2023-06-24T09:51:47;22.90;99.90
36552;DHT22;22559;54.176;12.102;2023-06-24T09:54:14;22.80;99.90
36552;DHT22;22559;54.176;12.102;2023-06-24T09:56:45;23.00;99.90
36552;DHT22;22559;54.176;12.102;2023-06-24T09:59:13;23.40;99.90
36552;DHT22;22559;54.176;12.102;2023-06-24T10:01:41;23.70;99.90
36552;DHT22;22559;54.176;12.102;2023-06-24T10:04:07;24.20;99.90
36552;DHT22;22559;54.176;12.102;2023-06-24T10:06:34;24.40;99.90
36552;DHT22;22559;54.176;12.102;2023-06-24T10:09:00;24.70;99.90
36552;DHT22;22559;54.176;12.102;2023-06-24T10:11:26;24.80;99.90
36552;DHT22;22559;54.176;12.102;2023-06-24T10:13:53;24.40;99.90
36552;DHT22;22559;54.176;12.102;2023-06-24T10:16:19;24.60;99.90
36552;DHT22;22559;54.176;12.102;2023-06-24T10:18:45;24.90;99.90
36552;DHT22;22559;54.176;12.102;2023-06-24T10:21:12;25.10;99.90
36552;DHT22;22559;54.176;12.102;2023-06-24T10:23:53;24.90;99.90
36552;DHT22;22559;54.176;12.102;2023-06-24T10:26:26;24.70;99.90
36552;DHT22;22559;54.176;12.102;2023-06-24T10:34:27;25.10;99.90
36552;DHT22;22559;54.176;12.102;2023-06-24T10:39:55;25.20;99.90
36552;DHT22;22559;54.176;12.102;2023-06-24T10:47:35;25.60;99.90
36552;DHT22;22559;54.176;12.102;2023-06-24T10:50:01;25.50;99.90
36552;DHT22;22559;54.176;12.102;2023-06-24T10:52:27;25.60;99.90
36552;DHT22;22559;54.176;12.102;2023-06-24T10:54:54;25.10;99.90
36552;DHT22;22559;54.176;12.102;2023-06-24T10:57:27;25.30;99.90
36552;DHT22;22559;54.176;12.102;2023-06-24T10:59:54;25.00;99.90
36552;DHT22;22559;54.176;12.102;2023-06-24T11:02:25;24.80;99.90
36552;DHT22;22559;54.176;12.102;2023-06-24T11:04:54;25.10;99.90
36552;DHT22;22559;54.176;12.102;2023-06-24T11:07:25;25.10;99.90
36552;DHT22;22559;54.176;12.102;2023-06-24T11:09:55;24.90;99.90
36552;DHT22;22559;54.176;12.102;2023-06-24T11:12:25;25.10;99.90
36552;DHT22;22559;54.176;12.102;2023-06-24T11:14:55;25.40;99.90
36552;DHT22;22559;54.176;12.102;2023-06-24T11:17:20;25.70;99.90
36552;DHT22;22559;54.176;12.102;2023-06-24T11:19:46;25.80;99.90
36552;DHT22;22559;54.176;12.102;2023-06-24T11:22:12;25.50;99.90
36552;DHT22;22559;54.176;12.102;2023-06-24T11:24:37;25.70;99.90
36552;DHT22;22559;54.176;12.102;2023-06-24T11:27:05;25.60;99.90
36552;DHT22;22559;54.176;12.102;2023-06-24T11:29:32;25.50;99.90
36552;DHT22;22559;54.176;12.102;2023-06-24T11:31:58;25.00;99.90
36552;DHT22;22559;54.176;12.102;2023-06-24T11:34:24;24.70;99.90
36552;DHT22;22559;54.176;12.102;2023-06-24T11:36:50;24.50;99.90
36552;DHT22;22559;54.176;12.102;2023-06-24T11:39:26;24.60;99.90
36552;DHT22;22559;54.176;12.102;2023-06-24T11:41:53;24.90;99.90
36552;DHT22;22559;54.176;12.102;2023-06-24T11:44:20;25.00;99.90
36552;DHT22;22559;54.176;12.102;2023-06-24T11:46:46;24.90;99.90
36552;DHT22;22559;54.176;12.102;2023-06-24T11:49:11;24.60;99.90
36552;DHT22;22559;54.176;12.102;2023-06-24T11:51:48;24.40;99.90
36552;DHT22;22559;54.176;12.102;2023-06-24T11:54:16;24.10;99.90
36552;DHT22;22559;54.176;12.102;2023-06-24T11:56:43;24.00;99.90
36552;DHT22;22559;54.176;12.102;2023-06-24T11:59:21;23.70;99.90
36552;DHT22;22559;54.176;12.102;2023-06-24T12:01:58;23.60;99.90
36552;DHT22;22559;54.176;12.102;2023-06-24T12:04:28;23.40;99.90
36552;DHT22;22559;54.176;12.102;2023-06-24T12:06:54;23.40;99.90
36552;DHT22;22559;54.176;12.102;2023-06-24T12:09:20;23.20;99.90
36552;DHT22;22559;54.176;12.102;2023-06-24T12:11:46;23.30;99.90
36552;DHT22;22559;54.176;12.102;2023-06-24T12:14:11;23.30;99.90
36552;DHT22;22559;54.176;12.102;2023-06-24T12:16:38;23.20;99.90
36552;DHT22;22559;54.176;12.102;2023-06-24T12:19:04;23.50;99.90
36552;DHT22;22559;54.176;12.102;2023-06-24T12:21:30;23.90;99.90
36552;DHT22;22559;54.176;12.102;2023-06-24T12:23:55;24.20;99.90
36552;DHT22;22559;54.176;12.102;2023-06-24T12:26:21;24.70;99.90
36552;DHT22;22559;54.176;12.102;2023-06-24T12:28:47;24.60;99.90
36552;DHT22;22559;54.176;12.102;2023-06-24T12:31:12;24.50;99.90
36552;DHT22;22559;54.176;12.102;2023-06-24T12:33:38;24.30;99.90
36552;DHT22;22559;54.176;12.102;2023-06-24T12:36:04;24.20;99.90
36552;DHT22;22559;54.176;12.102;2023-06-24T12:38:29;23.90;99.90
36552;DHT22;22559;54.176;12.102;2023-06-24T12:40:59;23.60;99.90
36552;DHT22;22559;54.176;12.102;2023-06-24T12:43:25;23.40;99.90
36552;DHT22;22559;54.176;12.102;2023-06-24T12:45:50;23.50;99.90
36552;DHT22;22559;54.176;12.102;2023-06-24T12:48:16;24.00;99.90
36552;DHT22;22559;54.176;12.102;2023-06-24T12:50:42;24.40;99.90
36552;DHT22;22559;54.176;12.102;2023-06-24T12:53:08;24.70;99.90
36552;DHT22;22559;54.176;12.102;2023-06-24T12:55:36;25.20;99.90
36552;DHT22;22559;54.176;12.102;2023-06-24T12:58:02;25.80;99.90
36552;DHT22;22559;54.176;12.102;2023-06-24T13:00:27;26.20;99.90
36552;DHT22;22559;54.176;12.102;2023-06-24T13:02:53;26.00;99.90
36552;DHT22;22559;54.176;12.102;2023-06-24T13:05:19;26.20;99.90
36552;DHT22;22559;54.176;12.102;2023-06-24T13:07:44;26.50;99.90
36552;DHT22;22559;54.176;12.102;2023-06-24T13:10:10;26.90;99.90
36552;DHT22;22559;54.176;12.102;2023-06-24T13:12:36;27.20;99.90
36552;DHT22;22559;54.176;12.102;2023-06-24T13:15:03;26.80;99.90
36552;DHT22;22559;54.176;12.102;2023-06-24T13:17:32;26.80;99.90
36552;DHT22;22559;54.176;12.102;2023-06-24T13:19:58;26.70;99.90
36552;DHT22;22559;54.176;12.102;2023-06-24T13:22:24;26.10;99.90
36552;DHT22;22559;54.176;12.102;2023-06-24T13:24:49;25.60;99.90
36552;DHT22;22559;54.176;12.102;2023-06-24T13:27:16;25.10;99.90
36552;DHT22;22559;54.176;12.102;2023-06-24T13:29:42;24.70;99.90
36552;DHT22;22559;54.176;12.102;2023-06-24T13:32:08;25.30;99.90
36552;DHT22;22559;54.176;12.102;2023-06-24T13:34:34;26.00;99.90
36552;DHT22;22559;54.176;12.102;2023-06-24T13:36:59;26.50;99.90
36552;DHT22;22559;54.176;12.102;2023-06-24T13:39:25;26.80;99.90
36552;DHT22;22559;54.176;12.102;2023-06-24T13:41:52;27.20;99.90
36552;DHT22;22559;54.176;12.102;2023-06-24T13:44:18;27.60;99.90
36552;DHT22;22559;54.176;12.102;2023-06-24T13:46:43;27.70;99.90
36552;DHT22;22559;54.176;12.102;2023-06-24T13:49:10;27.80;99.90
36552;DHT22;22559;54.176;12.102;2023-06-24T13:51:36;27.70;99.90
36552;DHT22;22559;54.176;12.102;2023-06-24T13:54:01;27.30;99.90
36552;DHT22;22559;54.176;12.102;2023-06-24T13:56:27;27.50;99.90
36552;DHT22;22559;54.176;12.102;2023-06-24T13:58:54;27.20;99.90
36552;DHT22;22559;54.176;12.102;2023-06-24T14:01:21;26.80;99.90
36552;DHT22;22559;54.176;12.102;2023-06-24T14:03:48;27.00;99.90
36552;DHT22;22559;54.176;12.102;2023-06-24T14:06:16;27.20;99.90
36552;DHT22;22559;54.176;12.102;2023-06-24T14:08:42;27.00;99.90
36552;DHT22;22559;54.176;12.102;2023-06-24T14:11:08;27.10;99.90
36552;DHT22;22559;54.176;12.102;2023-06-24T14:13:33;27.00;99.90
36552;DHT22;22559;54.176;12.102;2023-06-24T14:16:02;27.20;99.90
36552;DHT22;22559;54.176;12.102;2023-06-24T14:18:27;27.20;99.90
36552;DHT22;22559;54.176;12.102;2023-06-24T14:20:53;27.30;99.90
36552;DHT22;22559;54.176;12.102;2023-06-24T14:23:19;27.00;99.90
36552;DHT22;22559;54.176;12.102;2023-06-24T14:25:44;26.60;99.90
36552;DHT22;22559;54.176;12.102;2023-06-24T14:28:10;26.50;99.90
36552;DHT22;22559;54.176;12.102;2023-06-24T14:30:36;26.20;99.90
36552;DHT22;22559;54.176;12.102;2023-06-24T14:33:01;25.80;99.90
36552;DHT22;22559;54.176;12.102;2023-06-24T14:35:27;25.60;99.90
36552;DHT22;22559;54.176;12.102;2023-06-24T14:37:53;25.70;99.90
36552;DHT22;22559;54.176;12.102;2023-06-24T14:40:18;25.80;99.90
36552;DHT22;22559;54.176;12.102;2023-06-24T14:42:44;25.90;99.90
36552;DHT22;22559;54.176;12.102;2023-06-24T14:45:10;26.10;99.90
36552;DHT22;22559;54.176;12.102;2023-06-24T14:47:35;26.00;99.90
36552;DHT22;22559;54.176;12.102;2023-06-24T14:50:02;26.00;99.90
36552;DHT22;22559;54.176;12.102;2023-06-24T14:52:29;26.20;99.90
36552;DHT22;22559;54.176;12.102;2023-06-24T14:54:54;26.30;99.90
36552;DHT22;22559;54.176;12.102;2023-06-24T14:57:20;26.40;99.90
36552;DHT22;22559;54.176;12.102;2023-06-24T14:59:48;26.60;99.90
36552;DHT22;22559;54.176;12.102;2023-06-24T15:02:14;26.70;99.90
36552;DHT22;22559;54.176;12.102;2023-06-24T15:04:40;26.60;99.90
36552;DHT22;22559;54.176;12.102;2023-06-24T15:07:06;26.90;99.90
36552;DHT22;22559;54.176;12.102;2023-06-24T15:09:32;26.80;99.90
36552;DHT22;22559;54.176;12.102;2023-06-24T15:11:59;26.60;99.90
36552;DHT22;22559;54.176;12.102;2023-06-24T15:14:25;26.40;99.90
36552;DHT22;22559;54.176;12.102;2023-06-24T15:16:51;26.30;99.90
36552;DHT22;22559;54.176;12.102;2023-06-24T15:19:18;26.40;99.90
36552;DHT22;22559;54.176;12.102;2023-06-24T15:21:43;26.50;99.90
36552;DHT22;22559;54.176;12.102;2023-06-24T15:24:09;26.30;99.90
36552;DHT22;22559;54.176;12.102;2023-06-24T15:26:34;26.70;99.90
36552;DHT22;22559;54.176;12.102;2023-06-24T15:29:00;26.90;99.90
36552;DHT22;22559;54.176;12.102;2023-06-24T15:31:26;26.80;99.90
36552;DHT22;22559;54.176;12.102;2023-06-24T15:33:52;26.90;99.90
36552;DHT22;22559;54.176;12.102;2023-06-24T15:36:17;27.00;99.90
36552;DHT22;22559;54.176;12.102;2023-06-24T15:38:43;27.20;99.90
36552;DHT22;22559;54.176;12.102;2023-06-24T15:41:09;27.20;99.90
36552;DHT22;22559;54.176;12.102;2023-06-24T15:43:35;27.60;99.90